sensor_id;sensor_type;location;lat;lon;timestamp;pressure;altitude;pressure_sealevel;temperature;humidity
54876;BME280;40764;48.472;8.166;2022-07-09T00:00:52;99379.22;;;12.48;76.71
54876;BME280;40764;48.472;8.166;2022-07-09T00:06:52;99374.56;;;12.38;77.10
54876;BME280;40764;48.472;8.166;2022-07-09T00:12:52;99369.16;;;12.07;78.88
54876;BME280;40764;48.472;8.166;2022-07-09T00:18:53;99371.38;;;11.90;79.37
54876;BME280;40764;48.472;8.166;2022-07-09T00:24:53;99365.88;;;11.95;79.43
54876;BME280;40764;48.472;8.166;2022-07-09T00:30:54;99367.25;;;11.98;78.70
54876;BME280;40764;48.472;8.166;2022-07-09T00:36:54;99357.66;;;12.00;79.02
54876;BME280;40764;48.472;8.166;2022-07-09T00:42:54;99351.38;;;11.90;79.56
54876;BME280;40764;48.472;8.166;2022-07-09T00:48:55;99348.06;;;11.98;78.90
54876;BME280;40764;48.472;8.166;2022-07-09T00:54:56;99345.59;;;11.66;80.06
54876;BME280;40764;48.472;8.166;2022-07-09T01:01:00;99334.38;;;11.47;80.85
54876;BME280;40764;48.472;8.166;2022-07-09T01:07:00;99327.81;;;11.48;81.13
54876;BME280;40764;48.472;8.166;2022-07-09T01:13:02;99325.34;;;11.52;80.77
54876;BME280;40764;48.472;8.166;2022-07-09T01:19:03;99327.25;;;11.41;81.54
54876;BME280;40764;48.472;8.166;2022-07-09T01:25:07;99329.72;;;11.47;80.84
54876;BME280;40764;48.472;8.166;2022-07-09T01:31:09;99323.16;;;11.48;80.84
54876;BME280;40764;48.472;8.166;2022-07-09T01:37:09;99319.84;;;11.21;82.35
54876;BME280;40764;48.472;8.166;2022-07-09T01:43:10;99317.66;;;11.13;82.47
54876;BME280;40764;48.472;8.166;2022-07-09T01:49:10;99317.66;;;11.08;82.50
54876;BME280;40764;48.472;8.166;2022-07-09T01:55:11;99314.09;;;11.07;82.79
54876;BME280;40764;48.472;8.166;2022-07-09T02:01:11;99314.94;;;11.18;82.49
54876;BME280;40764;48.472;8.166;2022-07-09T02:07:13;99313.81;;;11.14;82.30
54876;BME280;40764;48.472;8.166;2022-07-09T02:13:13;99310.00;;;11.00;83.32
54876;BME280;40764;48.472;8.166;2022-07-09T02:19:14;99309.72;;;11.11;83.18
54876;BME280;40764;48.472;8.166;2022-07-09T02:25:15;99311.09;;;10.99;83.33
54876;BME280;40764;48.472;8.166;2022-07-09T02:31:15;99306.59;;;10.62;85.65
54876;BME280;40764;48.472;8.166;2022-07-09T02:37:16;99309.06;;;10.69;85.27
54876;BME280;40764;48.472;8.166;2022-07-09T02:43:16;99318.41;;;10.78;84.07
54876;BME280;40764;48.472;8.166;2022-07-09T02:49:17;99306.03;;;10.55;85.56
54876;BME280;40764;48.472;8.166;2022-07-09T02:55:17;99308.78;;;10.65;85.25
54876;BME280;40764;48.472;8.166;2022-07-09T03:01:17;99308.25;;;10.63;85.65
54876;BME280;40764;48.472;8.166;2022-07-09T03:07:18;99306.59;;;10.57;85.79
54876;BME280;40764;48.472;8.166;2022-07-09T03:13:19;99306.22;;;10.38;86.30
54876;BME280;40764;48.472;8.166;2022-07-09T03:19:20;99306.56;;;10.52;86.26
54876;BME280;40764;48.472;8.166;2022-07-09T03:25:20;99304.31;;;10.34;86.42
54876;BME280;40764;48.472;8.166;2022-07-09T03:31:21;99314.97;;;10.35;86.47
54876;BME280;40764;48.472;8.166;2022-07-09T03:37:21;99315.25;;;10.34;86.96
54876;BME280;40764;48.472;8.166;2022-07-09T03:43:22;99318.59;;;10.51;86.35
54876;BME280;40764;48.472;8.166;2022-07-09T03:49:22;99310.56;;;10.29;86.93
54876;BME280;40764;48.472;8.166;2022-07-09T03:55:23;99323.16;;;10.30;87.43
54876;BME280;40764;48.472;8.166;2022-07-09T04:01:24;99311.22;;;10.46;87.13
54876;BME280;40764;48.472;8.166;2022-07-09T04:07:27;99312.25;;;10.40;87.26
54876;BME280;40764;48.472;8.166;2022-07-09T04:13:28;99304.81;;;10.20;88.26
54876;BME280;40764;48.472;8.166;2022-07-09T04:19:37;99311.75;;;10.48;87.20
54876;BME280;40764;48.472;8.166;2022-07-09T04:25:38;99314.81;;;10.62;87.18
54876;BME280;40764;48.472;8.166;2022-07-09T04:31:38;99317.78;;;10.55;87.00
54876;BME280;40764;48.472;8.166;2022-07-09T04:37:39;99311.25;;;10.67;86.70
54876;BME280;40764;48.472;8.166;2022-07-09T04:43:39;99304.47;;;10.74;86.62
54876;BME280;40764;48.472;8.166;2022-07-09T04:49:40;99309.69;;;10.86;86.96
54876;BME280;40764;48.472;8.166;2022-07-09T04:55:40;99303.38;;;10.91;87.61
54876;BME280;40764;48.472;8.166;2022-07-09T05:01:41;99305.34;;;11.05;87.38
54876;BME280;40764;48.472;8.166;2022-07-09T05:07:41;99309.19;;;11.40;85.87
54876;BME280;40764;48.472;8.166;2022-07-09T05:13:42;99303.19;;;11.58;85.75
54876;BME280;40764;48.472;8.166;2022-07-09T05:19:42;99308.09;;;11.82;85.01
54876;BME280;40764;48.472;8.166;2022-07-09T05:25:42;99305.03;;;12.03;83.86
54876;BME280;40764;48.472;8.166;2022-07-09T05:31:43;99303.63;;;12.16;83.71
54876;BME280;40764;48.472;8.166;2022-07-09T05:37:44;99301.66;;;12.32;82.89
54876;BME280;40764;48.472;8.166;2022-07-09T05:43:44;99295.50;;;12.60;82.52
54876;BME280;40764;48.472;8.166;2022-07-09T05:49:47;99292.03;;;12.89;81.31
54876;BME280;40764;48.472;8.166;2022-07-09T05:55:48;99300.91;;;13.20;79.79
54876;BME280;40764;48.472;8.166;2022-07-09T06:01:49;99290.97;;;13.58;78.20
54876;BME280;40764;48.472;8.166;2022-07-09T06:07:49;99287.91;;;13.93;76.69
54876;BME280;40764;48.472;8.166;2022-07-09T06:20:01;99277.94;;;14.50;75.92
54876;BME280;40764;48.472;8.166;2022-07-09T06:26:02;99285.41;;;14.87;72.67
54876;BME280;40764;48.472;8.166;2022-07-09T06:32:02;99277.47;;;15.37;69.84
54876;BME280;40764;48.472;8.166;2022-07-09T06:38:03;99277.59;;;15.78;68.42
54876;BME280;40764;48.472;8.166;2022-07-09T06:44:04;99259.25;;;16.15;66.58
54876;BME280;40764;48.472;8.166;2022-07-09T06:50:05;99255.28;;;16.35;65.82
54876;BME280;40764;48.472;8.166;2022-07-09T06:56:05;99252.09;;;16.55;63.83
54876;BME280;40764;48.472;8.166;2022-07-09T07:02:06;99251.66;;;16.62;64.28
54876;BME280;40764;48.472;8.166;2022-07-09T07:08:06;99247.56;;;16.73;63.43
54876;BME280;40764;48.472;8.166;2022-07-09T07:14:07;99245.44;;;17.06;62.99
54876;BME280;40764;48.472;8.166;2022-07-09T07:20:08;99246.38;;;17.46;61.54
54876;BME280;40764;48.472;8.166;2022-07-09T07:26:08;99239.59;;;17.75;60.96
54876;BME280;40764;48.472;8.166;2022-07-09T07:32:09;99240.72;;;18.13;59.54
54876;BME280;40764;48.472;8.166;2022-07-09T07:38:09;99232.81;;;18.29;57.53
54876;BME280;40764;48.472;8.166;2022-07-09T07:44:10;99232.56;;;18.56;58.59
54876;BME280;40764;48.472;8.166;2022-07-09T07:50:10;99220.88;;;18.94;57.43
54876;BME280;40764;48.472;8.166;2022-07-09T07:56:11;99218.59;;;19.22;56.71
54876;BME280;40764;48.472;8.166;2022-07-09T08:02:11;99216.56;;;19.66;52.05
54876;BME280;40764;48.472;8.166;2022-07-09T08:08:12;99216.41;;;20.09;50.16
54876;BME280;40764;48.472;8.166;2022-07-09T08:14:12;99210.94;;;20.21;49.58
54876;BME280;40764;48.472;8.166;2022-07-09T08:20:13;99220.00;;;20.39;49.95
54876;BME280;40764;48.472;8.166;2022-07-09T08:26:13;99206.41;;;20.55;49.78
54876;BME280;40764;48.472;8.166;2022-07-09T08:32:14;99203.69;;;20.67;48.65
54876;BME280;40764;48.472;8.166;2022-07-09T08:38:14;99206.59;;;20.70;48.68
54876;BME280;40764;48.472;8.166;2022-07-09T08:44:15;99202.59;;;20.80;48.21
54876;BME280;40764;48.472;8.166;2022-07-09T08:50:17;99195.03;;;20.89;48.15
54876;BME280;40764;48.472;8.166;2022-07-09T08:56:19;99202.72;;;21.04;48.30
54876;BME280;40764;48.472;8.166;2022-07-09T09:02:20;99194.47;;;21.17;47.69
54876;BME280;40764;48.472;8.166;2022-07-09T09:08:21;99198.94;;;21.30;48.52
54876;BME280;40764;48.472;8.166;2022-07-09T09:14:24;99192.47;;;21.38;47.17
54876;BME280;40764;48.472;8.166;2022-07-09T09:20:25;99193.19;;;21.47;47.94
54876;BME280;40764;48.472;8.166;2022-07-09T09:26:27;99188.91;;;21.50;47.78
54876;BME280;40764;48.472;8.166;2022-07-09T09:32:27;99183.13;;;21.55;48.30
54876;BME280;40764;48.472;8.166;2022-07-09T09:38:28;99170.03;;;21.55;48.23
54876;BME280;40764;48.472;8.166;2022-07-09T09:44:32;99172.34;;;21.65;47.71
54876;BME280;40764;48.472;8.166;2022-07-09T09:50:37;99162.88;;;21.79;47.76
54876;BME280;40764;48.472;8.166;2022-07-09T09:56:38;99166.84;;;22.02;46.79
54876;BME280;40764;48.472;8.166;2022-07-09T10:02:43;99165.84;;;22.07;46.29
54876;BME280;40764;48.472;8.166;2022-07-09T10:08:44;99156.09;;;22.13;47.20
54876;BME280;40764;48.472;8.166;2022-07-09T10:14:44;99144.91;;;22.25;47.29
54876;BME280;40764;48.472;8.166;2022-07-09T10:20:45;99145.16;;;22.20;46.70
54876;BME280;40764;48.472;8.166;2022-07-09T10:26:45;99132.63;;;22.38;46.50
54876;BME280;40764;48.472;8.166;2022-07-09T10:39:11;99130.41;;;22.44;46.74
54876;BME280;40764;48.472;8.166;2022-07-09T10:45:44;99122.34;;;22.54;47.38
54876;BME280;40764;48.472;8.166;2022-07-09T10:51:46;99131.50;;;22.67;46.89
54876;BME280;40764;48.472;8.166;2022-07-09T10:57:46;99127.63;;;22.84;46.12
54876;BME280;40764;48.472;8.166;2022-07-09T11:03:50;99120.31;;;23.07;46.68
54876;BME280;40764;48.472;8.166;2022-07-09T11:09:52;99123.16;;;23.23;46.17
54876;BME280;40764;48.472;8.166;2022-07-09T11:15:57;99121.94;;;23.52;46.36
54876;BME280;40764;48.472;8.166;2022-07-09T11:22:02;99112.25;;;23.77;45.95
54876;BME280;40764;48.472;8.166;2022-07-09T11:28:03;99100.09;;;23.86;46.72
54876;BME280;40764;48.472;8.166;2022-07-09T11:34:04;99106.78;;;24.16;44.63
54876;BME280;40764;48.472;8.166;2022-07-09T11:40:16;99110.59;;;24.59;44.75
54876;BME280;40764;48.472;8.166;2022-07-09T11:46:21;99117.13;;;24.66;43.78
54876;BME280;40764;48.472;8.166;2022-07-09T11:52:22;99109.09;;;24.84;43.22
54876;BME280;40764;48.472;8.166;2022-07-09T11:58:22;99104.91;;;24.75;43.46
54876;BME280;40764;48.472;8.166;2022-07-09T12:04:23;99111.00;;;24.26;42.97
54876;BME280;40764;48.472;8.166;2022-07-09T12:10:37;99093.09;;;24.62;41.86
54876;BME280;40764;48.472;8.166;2022-07-09T12:16:38;99082.47;;;24.71;41.58
54876;BME280;40764;48.472;8.166;2022-07-09T12:22:38;99082.75;;;25.47;40.21
54876;BME280;40764;48.472;8.166;2022-07-09T12:28:38;99071.38;;;25.36;39.86
54876;BME280;40764;48.472;8.166;2022-07-09T12:34:39;99057.25;;;24.87;40.51
54876;BME280;40764;48.472;8.166;2022-07-09T12:40:39;99041.88;;;24.77;41.29
54876;BME280;40764;48.472;8.166;2022-07-09T12:46:40;99039.84;;;24.97;40.57
54876;BME280;40764;48.472;8.166;2022-07-09T12:52:41;99029.75;;;25.80;38.87
54876;BME280;40764;48.472;8.166;2022-07-09T12:58:42;99017.75;;;26.06;38.94
54876;BME280;40764;48.472;8.166;2022-07-09T13:04:42;99010.81;;;26.30;37.66
54876;BME280;40764;48.472;8.166;2022-07-09T13:10:42;99019.31;;;26.64;37.25
54876;BME280;40764;48.472;8.166;2022-07-09T13:16:43;99028.94;;;26.06;37.92
54876;BME280;40764;48.472;8.166;2022-07-09T13:22:43;99015.47;;;26.45;37.14
54876;BME280;40764;48.472;8.166;2022-07-09T13:28:43;99010.00;;;26.90;36.12
54876;BME280;40764;48.472;8.166;2022-07-09T13:34:44;98998.41;;;26.95;36.44
54876;BME280;40764;48.472;8.166;2022-07-09T13:40:44;98994.00;;;26.94;35.90
54876;BME280;40764;48.472;8.166;2022-07-09T13:46:44;99001.38;;;27.53;34.65
54876;BME280;40764;48.472;8.166;2022-07-09T13:52:45;99001.28;;;27.94;34.58
54876;BME280;40764;48.472;8.166;2022-07-09T13:58:45;98993.38;;;27.11;35.46
54876;BME280;40764;48.472;8.166;2022-07-09T14:04:46;98972.63;;;26.82;36.46
54876;BME280;40764;48.472;8.166;2022-07-09T14:10:47;98973.25;;;26.65;36.11
54876;BME280;40764;48.472;8.166;2022-07-09T14:16:48;98974.16;;;26.09;36.81
54876;BME280;40764;48.472;8.166;2022-07-09T14:22:48;98979.41;;;26.14;36.36
54876;BME280;40764;48.472;8.166;2022-07-09T14:28:49;98970.09;;;26.70;34.87
54876;BME280;40764;48.472;8.166;2022-07-09T14:34:49;98967.88;;;26.19;35.07
54876;BME280;40764;48.472;8.166;2022-07-09T14:40:50;98962.56;;;26.40;33.75
54876;BME280;40764;48.472;8.166;2022-07-09T14:46:50;98957.84;;;26.48;34.53
54876;BME280;40764;48.472;8.166;2022-07-09T14:52:52;98961.25;;;27.05;32.78
54876;BME280;40764;48.472;8.166;2022-07-09T14:58:53;98956.69;;;26.22;34.02
54876;BME280;40764;48.472;8.166;2022-07-09T15:04:53;98950.06;;;26.68;33.36
54876;BME280;40764;48.472;8.166;2022-07-09T15:10:54;98946.41;;;27.49;32.33
54876;BME280;40764;48.472;8.166;2022-07-09T15:16:54;98952.69;;;27.86;31.42
54876;BME280;40764;48.472;8.166;2022-07-09T15:22:56;98939.56;;;28.08;31.27
54876;BME280;40764;48.472;8.166;2022-07-09T15:28:56;98932.16;;;28.80;31.38
54876;BME280;40764;48.472;8.166;2022-07-09T15:34:57;98917.22;;;28.40;32.88
54876;BME280;40764;48.472;8.166;2022-07-09T15:40:57;98917.91;;;28.19;32.69
54876;BME280;40764;48.472;8.166;2022-07-09T15:46:58;98924.56;;;27.79;32.79
54876;BME280;40764;48.472;8.166;2022-07-09T15:52:58;98916.59;;;27.30;34.30
54876;BME280;40764;48.472;8.166;2022-07-09T15:58:59;98903.38;;;28.03;31.82
54876;BME280;40764;48.472;8.166;2022-07-09T16:04:59;98898.81;;;28.67;31.59
54876;BME280;40764;48.472;8.166;2022-07-09T16:11:00;98889.97;;;28.73;31.15
54876;BME280;40764;48.472;8.166;2022-07-09T16:17:19;98881.56;;;29.26;30.99
54876;BME280;40764;48.472;8.166;2022-07-09T16:23:20;98883.19;;;29.02;31.25
54876;BME280;40764;48.472;8.166;2022-07-09T16:29:21;98878.22;;;28.31;32.78
54876;BME280;40764;48.472;8.166;2022-07-09T16:35:21;98874.28;;;28.82;31.71
54876;BME280;40764;48.472;8.166;2022-07-09T16:41:21;98872.28;;;28.83;32.89
54876;BME280;40764;48.472;8.166;2022-07-09T16:47:22;98861.88;;;28.90;32.11
54876;BME280;40764;48.472;8.166;2022-07-09T16:53:22;98871.13;;;28.98;32.00
54876;BME280;40764;48.472;8.166;2022-07-09T16:59:23;98860.22;;;29.57;30.84
54876;BME280;40764;48.472;8.166;2022-07-09T17:05:24;98857.66;;;29.95;30.07
54876;BME280;40764;48.472;8.166;2022-07-09T17:11:24;98869.06;;;29.59;30.63
54876;BME280;40764;48.472;8.166;2022-07-09T17:17:24;98857.03;;;29.30;30.75
54876;BME280;40764;48.472;8.166;2022-07-09T17:23:25;98859.47;;;29.07;31.72
54876;BME280;40764;48.472;8.166;2022-07-09T17:29:25;98855.38;;;28.54;32.25
54876;BME280;40764;48.472;8.166;2022-07-09T17:35:25;98843.28;;;28.32;32.69
54876;BME280;40764;48.472;8.166;2022-07-09T17:41:26;98849.25;;;28.17;33.08
54876;BME280;40764;48.472;8.166;2022-07-09T17:47:26;98851.44;;;29.05;31.78
54876;BME280;40764;48.472;8.166;2022-07-09T17:53:27;98854.25;;;29.05;32.27
54876;BME280;40764;48.472;8.166;2022-07-09T17:59:27;98832.09;;;28.50;33.48
54876;BME280;40764;48.472;8.166;2022-07-09T18:05:28;98848.56;;;29.41;31.30
54876;BME280;40764;48.472;8.166;2022-07-09T18:11:28;98846.53;;;28.38;32.60
54876;BME280;40764;48.472;8.166;2022-07-09T18:17:29;98838.31;;;27.83;34.28
54876;BME280;40764;48.472;8.166;2022-07-09T18:23:29;98841.41;;;27.02;35.90
54876;BME280;40764;48.472;8.166;2022-07-09T18:29:30;98845.75;;;26.51;36.36
54876;BME280;40764;48.472;8.166;2022-07-09T18:35:30;98841.59;;;26.01;38.53
54876;BME280;40764;48.472;8.166;2022-07-09T18:41:30;98839.94;;;25.10;42.77
54876;BME280;40764;48.472;8.166;2022-07-09T18:47:31;98836.63;;;24.13;45.53
54876;BME280;40764;48.472;8.166;2022-07-09T18:53:31;98837.47;;;23.75;46.12
54876;BME280;40764;48.472;8.166;2022-07-09T18:59:32;98837.31;;;23.13;48.90
54876;BME280;40764;48.472;8.166;2022-07-09T19:05:32;98832.56;;;22.67;49.86
54876;BME280;40764;48.472;8.166;2022-07-09T19:11:32;98831.56;;;22.28;52.01
54876;BME280;40764;48.472;8.166;2022-07-09T19:17:33;98840.03;;;21.63;54.34
54876;BME280;40764;48.472;8.166;2022-07-09T19:23:34;98841.41;;;21.04;57.42
54876;BME280;40764;48.472;8.166;2022-07-09T19:29:35;98847.81;;;20.68;58.35
54876;BME280;40764;48.472;8.166;2022-07-09T19:35:36;98852.13;;;20.33;59.60
54876;BME280;40764;48.472;8.166;2022-07-09T19:41:37;98857.03;;;20.15;60.22
54876;BME280;40764;48.472;8.166;2022-07-09T19:47:38;98856.09;;;19.78;61.99
54876;BME280;40764;48.472;8.166;2022-07-09T19:53:39;98857.84;;;19.83;61.59
54876;BME280;40764;48.472;8.166;2022-07-09T19:59:40;98868.00;;;19.78;60.78
54876;BME280;40764;48.472;8.166;2022-07-09T20:05:40;98871.94;;;19.57;62.09
54876;BME280;40764;48.472;8.166;2022-07-09T20:11:40;98861.63;;;19.15;64.30
54876;BME280;40764;48.472;8.166;2022-07-09T20:17:41;98864.34;;;18.95;64.35
54876;BME280;40764;48.472;8.166;2022-07-09T20:23:41;98865.50;;;18.94;64.47
54876;BME280;40764;48.472;8.166;2022-07-09T20:29:42;98869.41;;;18.93;64.38
54876;BME280;40764;48.472;8.166;2022-07-09T20:35:42;98867.06;;;19.03;63.02
54876;BME280;40764;48.472;8.166;2022-07-09T20:41:43;98864.34;;;18.95;64.12
54876;BME280;40764;48.472;8.166;2022-07-09T20:47:43;98860.84;;;18.77;65.07
54876;BME280;40764;48.472;8.166;2022-07-09T20:53:44;98867.81;;;18.36;67.65
54876;BME280;40764;48.472;8.166;2022-07-09T20:59:44;98876.34;;;18.14;68.43
54876;BME280;40764;48.472;8.166;2022-07-09T21:05:45;98875.19;;;18.15;68.46
54876;BME280;40764;48.472;8.166;2022-07-09T21:11:45;98880.44;;;17.99;69.05
54876;BME280;40764;48.472;8.166;2022-07-09T21:17:46;98878.28;;;18.13;68.29
54876;BME280;40764;48.472;8.166;2022-07-09T21:24:05;98875.72;;;17.82;69.96
54876;BME280;40764;48.472;8.166;2022-07-09T21:30:06;98875.53;;;17.61;71.10
54876;BME280;40764;48.472;8.166;2022-07-09T21:36:06;98882.69;;;17.45;71.46
54876;BME280;40764;48.472;8.166;2022-07-09T21:42:07;98879.28;;;17.48;71.39
54876;BME280;40764;48.472;8.166;2022-07-09T21:48:07;98870.66;;;17.41;71.16
54876;BME280;40764;48.472;8.166;2022-07-09T21:54:09;98868.06;;;17.36;71.29
54876;BME280;40764;48.472;8.166;2022-07-09T22:00:18;98877.63;;;17.30;72.78
54876;BME280;40764;48.472;8.166;2022-07-09T22:06:19;98874.81;;;17.04;73.83
54876;BME280;40764;48.472;8.166;2022-07-09T22:12:20;98879.19;;;16.96;74.44
54876;BME280;40764;48.472;8.166;2022-07-09T22:18:20;98881.72;;;16.76;75.48
54876;BME280;40764;48.472;8.166;2022-07-09T22:24:22;98889.66;;;16.68;75.44
54876;BME280;40764;48.472;8.166;2022-07-09T22:30:22;98885.59;;;16.66;75.41
54876;BME280;40764;48.472;8.166;2022-07-09T22:36:23;98890.78;;;16.67;75.02
54876;BME280;40764;48.472;8.166;2022-07-09T22:42:24;98886.88;;;16.68;74.97
54876;BME280;40764;48.472;8.166;2022-07-09T22:48:24;98883.97;;;16.73;74.56
54876;BME280;40764;48.472;8.166;2022-07-09T22:54:25;98881.94;;;16.57;75.50
54876;BME280;40764;48.472;8.166;2022-07-09T23:00:25;98884.88;;;16.60;75.26
54876;BME280;40764;48.472;8.166;2022-07-09T23:06:26;98886.50;;;16.22;77.00
54876;BME280;40764;48.472;8.166;2022-07-09T23:12:26;98893.88;;;16.13;77.71
54876;BME280;40764;48.472;8.166;2022-07-09T23:18:26;98883.72;;;16.22;77.28
54876;BME280;40764;48.472;8.166;2022-07-09T23:24:27;98889.06;;;15.96;78.61
54876;BME280;40764;48.472;8.166;2022-07-09T23:30:27;98891.84;;;15.96;78.62
54876;BME280;40764;48.472;8.166;2022-07-09T23:36:28;98900.53;;;15.89;79.02
54876;BME280;40764;48.472;8.166;2022-07-09T23:42:28;98887.31;;;15.77;79.93
54876;BME280;40764;48.472;8.166;2022-07-09T23:48:28;98884.25;;;15.79;79.95
54876;BME280;40764;48.472;8.166;2022-07-09T23:54:29;98874.28;;;15.69;80.50
